sensor_id;sensor_type;location;lat;lon;timestamp;P1;durP1;ratioP1;P2;durP2;ratioP2
43552;SDS011;29153;42.696;23.218;2023-07-08T00:01:19;18.80;;;12.70;;
43552;SDS011;29153;42.696;23.218;2023-07-08T00:03:47;19.30;;;12.45;;
43552;SDS011;29153;42.696;23.218;2023-07-08T00:06:20;18.37;;;12.47;;
43552;SDS011;29153;42.696;23.218;2023-07-08T00:08:49;22.37;;;13.55;;
43552;SDS011;29153;42.696;23.218;2023-07-08T00:11:17;19.87;;;12.47;;
43552;SDS011;29153;42.696;23.218;2023-07-08T00:13:45;19.32;;;12.70;;
43552;SDS011;29153;42.696;23.218;2023-07-08T00:16:14;20.57;;;13.48;;
43552;SDS011;29153;42.696;23.218;2023-07-08T00:18:44;22.65;;;14.10;;
43552;SDS011;29153;42.696;23.218;2023-07-08T00:21:15;20.77;;;13.62;;
43552;SDS011;29153;42.696;23.218;2023-07-08T00:23:44;21.90;;;14.18;;
43552;SDS011;29153;42.696;23.218;2023-07-08T00:26:15;23.52;;;13.68;;
43552;SDS011;29153;42.696;23.218;2023-07-08T00:28:44;21.97;;;13.85;;
43552;SDS011;29153;42.696;23.218;2023-07-08T00:31:11;19.25;;;13.55;;
43552;SDS011;29153;42.696;23.218;2023-07-08T00:36:11;20.08;;;13.75;;
43552;SDS011;29153;42.696;23.218;2023-07-08T00:38:40;22.07;;;14.35;;
43552;SDS011;29153;42.696;23.218;2023-07-08T00:41:15;20.00;;;13.62;;
43552;SDS011;29153;42.696;23.218;2023-07-08T00:43:52;20.15;;;13.45;;
43552;SDS011;29153;42.696;23.218;2023-07-08T00:49:00;18.75;;;12.95;;
43552;SDS011;29153;42.696;23.218;2023-07-08T00:51:36;19.45;;;13.80;;
43552;SDS011;29153;42.696;23.218;2023-07-08T00:54:05;19.37;;;13.60;;
43552;SDS011;29153;42.696;23.218;2023-07-08T00:56:39;20.65;;;14.43;;
43552;SDS011;29153;42.696;23.218;2023-07-08T00:59:18;18.45;;;13.80;;
43552;SDS011;29153;42.696;23.218;2023-07-08T01:01:48;22.02;;;14.20;;
43552;SDS011;29153;42.696;23.218;2023-07-08T01:04:28;22.58;;;13.95;;
43552;SDS011;29153;42.696;23.218;2023-07-08T01:06:59;20.62;;;13.90;;
43552;SDS011;29153;42.696;23.218;2023-07-08T01:09:36;19.48;;;13.25;;
43552;SDS011;29153;42.696;23.218;2023-07-08T01:12:01;18.98;;;14.03;;
43552;SDS011;29153;42.696;23.218;2023-07-08T01:14:30;19.67;;;13.43;;
43552;SDS011;29153;42.696;23.218;2023-07-08T01:17:08;23.15;;;13.00;;
43552;SDS011;29153;42.696;23.218;2023-07-08T01:19:38;20.97;;;14.00;;
43552;SDS011;29153;42.696;23.218;2023-07-08T01:22:13;22.82;;;13.72;;
43552;SDS011;29153;42.696;23.218;2023-07-08T01:24:41;16.90;;;13.10;;
43552;SDS011;29153;42.696;23.218;2023-07-08T01:27:12;20.10;;;14.00;;
43552;SDS011;29153;42.696;23.218;2023-07-08T01:29:46;17.87;;;13.53;;
43552;SDS011;29153;42.696;23.218;2023-07-08T01:32:14;20.45;;;13.93;;
43552;SDS011;29153;42.696;23.218;2023-07-08T01:34:44;19.20;;;13.28;;
43552;SDS011;29153;42.696;23.218;2023-07-08T01:37:18;18.50;;;13.13;;
43552;SDS011;29153;42.696;23.218;2023-07-08T01:42:15;20.75;;;12.63;;
43552;SDS011;29153;42.696;23.218;2023-07-08T01:44:42;18.50;;;12.80;;
43552;SDS011;29153;42.696;23.218;2023-07-08T01:47:14;21.05;;;12.95;;
43552;SDS011;29153;42.696;23.218;2023-07-08T01:49:42;17.65;;;12.60;;
43552;SDS011;29153;42.696;23.218;2023-07-08T01:52:13;17.30;;;12.07;;
43552;SDS011;29153;42.696;23.218;2023-07-08T01:54:43;17.95;;;12.75;;
43552;SDS011;29153;42.696;23.218;2023-07-08T01:57:11;17.25;;;11.75;;
43552;SDS011;29153;42.696;23.218;2023-07-08T01:59:38;21.00;;;12.73;;
43552;SDS011;29153;42.696;23.218;2023-07-08T02:02:06;18.73;;;12.28;;
43552;SDS011;29153;42.696;23.218;2023-07-08T02:04:34;18.73;;;13.13;;
43552;SDS011;29153;42.696;23.218;2023-07-08T02:07:02;17.52;;;12.63;;
43552;SDS011;29153;42.696;23.218;2023-07-08T02:09:30;19.32;;;12.55;;
43552;SDS011;29153;42.696;23.218;2023-07-08T02:11:57;16.95;;;12.00;;
43552;SDS011;29153;42.696;23.218;2023-07-08T02:14:29;17.95;;;12.55;;
43552;SDS011;29153;42.696;23.218;2023-07-08T02:16:57;15.32;;;12.07;;
43552;SDS011;29153;42.696;23.218;2023-07-08T02:19:24;19.23;;;12.78;;
43552;SDS011;29153;42.696;23.218;2023-07-08T02:21:53;18.40;;;12.35;;
43552;SDS011;29153;42.696;23.218;2023-07-08T02:24:21;18.73;;;13.55;;
43552;SDS011;29153;42.696;23.218;2023-07-08T02:26:50;18.05;;;12.40;;
43552;SDS011;29153;42.696;23.218;2023-07-08T02:29:18;15.70;;;11.83;;
43552;SDS011;29153;42.696;23.218;2023-07-08T02:31:45;15.98;;;11.43;;
43552;SDS011;29153;42.696;23.218;2023-07-08T02:34:15;17.48;;;12.33;;
43552;SDS011;29153;42.696;23.218;2023-07-08T02:36:44;19.42;;;13.25;;
43552;SDS011;29153;42.696;23.218;2023-07-08T02:39:12;20.02;;;12.53;;
43552;SDS011;29153;42.696;23.218;2023-07-08T02:41:40;17.48;;;12.20;;
43552;SDS011;29153;42.696;23.218;2023-07-08T02:44:07;21.55;;;12.93;;
43552;SDS011;29153;42.696;23.218;2023-07-08T02:46:35;16.95;;;12.10;;
43552;SDS011;29153;42.696;23.218;2023-07-08T02:49:03;19.75;;;13.28;;
43552;SDS011;29153;42.696;23.218;2023-07-08T02:51:31;18.12;;;12.85;;
43552;SDS011;29153;42.696;23.218;2023-07-08T02:53:59;16.02;;;12.70;;
43552;SDS011;29153;42.696;23.218;2023-07-08T02:56:28;17.37;;;12.30;;
43552;SDS011;29153;42.696;23.218;2023-07-08T02:58:56;17.05;;;12.90;;
43552;SDS011;29153;42.696;23.218;2023-07-08T03:01:23;18.70;;;13.08;;
43552;SDS011;29153;42.696;23.218;2023-07-08T03:03:52;16.97;;;13.18;;
43552;SDS011;29153;42.696;23.218;2023-07-08T03:06:24;18.67;;;12.07;;
43552;SDS011;29153;42.696;23.218;2023-07-08T03:08:51;17.48;;;12.90;;
43552;SDS011;29153;42.696;23.218;2023-07-08T03:11:19;17.77;;;11.95;;
43552;SDS011;29153;42.696;23.218;2023-07-08T03:13:47;18.65;;;12.25;;
43552;SDS011;29153;42.696;23.218;2023-07-08T03:16:14;15.78;;;12.10;;
43552;SDS011;29153;42.696;23.218;2023-07-08T03:18:42;17.17;;;11.83;;
43552;SDS011;29153;42.696;23.218;2023-07-08T03:21:13;16.27;;;11.63;;
43552;SDS011;29153;42.696;23.218;2023-07-08T03:23:52;16.85;;;10.93;;
43552;SDS011;29153;42.696;23.218;2023-07-08T03:26:17;18.05;;;11.70;;
43552;SDS011;29153;42.696;23.218;2023-07-08T03:28:46;23.00;;;12.03;;
43552;SDS011;29153;42.696;23.218;2023-07-08T03:31:15;15.63;;;11.33;;
43552;SDS011;29153;42.696;23.218;2023-07-08T03:33:43;15.13;;;11.00;;
43552;SDS011;29153;42.696;23.218;2023-07-08T03:36:17;16.27;;;11.57;;
43552;SDS011;29153;42.696;23.218;2023-07-08T03:38:55;16.82;;;11.63;;
43552;SDS011;29153;42.696;23.218;2023-07-08T03:41:19;14.20;;;10.53;;
43552;SDS011;29153;42.696;23.218;2023-07-08T03:43:47;14.70;;;10.55;;
43552;SDS011;29153;42.696;23.218;2023-07-08T03:46:16;19.73;;;10.20;;
43552;SDS011;29153;42.696;23.218;2023-07-08T03:48:48;13.85;;;11.05;;
43552;SDS011;29153;42.696;23.218;2023-07-08T03:51:20;14.23;;;10.40;;
43552;SDS011;29153;42.696;23.218;2023-07-08T03:56:18;13.58;;;9.78;;
43552;SDS011;29153;42.696;23.218;2023-07-08T03:58:46;11.55;;;9.08;;
43552;SDS011;29153;42.696;23.218;2023-07-08T04:01:20;12.37;;;9.03;;
43552;SDS011;29153;42.696;23.218;2023-07-08T04:03:53;12.18;;;8.53;;
43552;SDS011;29153;42.696;23.218;2023-07-08T04:06:22;13.85;;;9.43;;
43552;SDS011;29153;42.696;23.218;2023-07-08T04:08:51;15.98;;;9.43;;
43552;SDS011;29153;42.696;23.218;2023-07-08T04:11:20;12.90;;;8.25;;
43552;SDS011;29153;42.696;23.218;2023-07-08T04:13:49;11.93;;;8.03;;
43552;SDS011;29153;42.696;23.218;2023-07-08T04:18:53;10.63;;;7.92;;
43552;SDS011;29153;42.696;23.218;2023-07-08T04:21:22;11.48;;;7.75;;
43552;SDS011;29153;42.696;23.218;2023-07-08T04:23:55;11.88;;;8.38;;
43552;SDS011;29153;42.696;23.218;2023-07-08T04:26:23;13.45;;;7.65;;
43552;SDS011;29153;42.696;23.218;2023-07-08T04:28:50;12.03;;;8.35;;
43552;SDS011;29153;42.696;23.218;2023-07-08T04:31:18;12.23;;;7.55;;
43552;SDS011;29153;42.696;23.218;2023-07-08T04:33:46;10.25;;;7.20;;
43552;SDS011;29153;42.696;23.218;2023-07-08T04:36:18;12.07;;;7.65;;
43552;SDS011;29153;42.696;23.218;2023-07-08T04:38:47;10.15;;;7.30;;
43552;SDS011;29153;42.696;23.218;2023-07-08T04:41:14;10.60;;;7.78;;
43552;SDS011;29153;42.696;23.218;2023-07-08T04:43:42;10.18;;;7.53;;
43552;SDS011;29153;42.696;23.218;2023-07-08T04:46:18;10.75;;;7.55;;
43552;SDS011;29153;42.696;23.218;2023-07-08T04:48:42;10.53;;;7.60;;
43552;SDS011;29153;42.696;23.218;2023-07-08T04:51:11;11.08;;;6.87;;
43552;SDS011;29153;42.696;23.218;2023-07-08T04:53:39;9.80;;;7.60;;
43552;SDS011;29153;42.696;23.218;2023-07-08T04:56:07;10.95;;;7.37;;
43552;SDS011;29153;42.696;23.218;2023-07-08T04:58:36;11.78;;;7.50;;
43552;SDS011;29153;42.696;23.218;2023-07-08T05:01:04;10.85;;;7.42;;
43552;SDS011;29153;42.696;23.218;2023-07-08T05:03:34;11.30;;;7.00;;
43552;SDS011;29153;42.696;23.218;2023-07-08T05:06:02;11.30;;;7.33;;
43552;SDS011;29153;42.696;23.218;2023-07-08T05:08:29;10.20;;;7.42;;
43552;SDS011;29153;42.696;23.218;2023-07-08T05:10:57;10.55;;;7.92;;
43552;SDS011;29153;42.696;23.218;2023-07-08T05:13:26;10.80;;;7.50;;
43552;SDS011;29153;42.696;23.218;2023-07-08T05:15:54;13.28;;;7.10;;
43552;SDS011;29153;42.696;23.218;2023-07-08T05:18:21;9.85;;;6.70;;
43552;SDS011;29153;42.696;23.218;2023-07-08T05:23:57;9.30;;;6.47;;
43552;SDS011;29153;42.696;23.218;2023-07-08T05:26:34;10.32;;;6.85;;
43552;SDS011;29153;42.696;23.218;2023-07-08T05:29:01;15.20;;;7.15;;
43552;SDS011;29153;42.696;23.218;2023-07-08T05:31:30;8.98;;;6.05;;
43552;SDS011;29153;42.696;23.218;2023-07-08T05:33:58;11.08;;;6.45;;
43552;SDS011;29153;42.696;23.218;2023-07-08T05:36:25;10.48;;;6.47;;
43552;SDS011;29153;42.696;23.218;2023-07-08T05:38:53;12.40;;;7.45;;
43552;SDS011;29153;42.696;23.218;2023-07-08T05:41:21;10.53;;;7.15;;
43552;SDS011;29153;42.696;23.218;2023-07-08T05:43:48;8.58;;;6.20;;
43552;SDS011;29153;42.696;23.218;2023-07-08T05:46:16;7.62;;;5.70;;
43552;SDS011;29153;42.696;23.218;2023-07-08T05:48:46;9.30;;;6.33;;
43552;SDS011;29153;42.696;23.218;2023-07-08T05:51:16;8.98;;;6.12;;
43552;SDS011;29153;42.696;23.218;2023-07-08T05:53:43;8.03;;;5.85;;
43552;SDS011;29153;42.696;23.218;2023-07-08T05:56:11;9.50;;;6.03;;
43552;SDS011;29153;42.696;23.218;2023-07-08T05:58:39;9.90;;;6.12;;
43552;SDS011;29153;42.696;23.218;2023-07-08T06:01:06;13.85;;;5.80;;
43552;SDS011;29153;42.696;23.218;2023-07-08T06:03:34;11.83;;;5.95;;
43552;SDS011;29153;42.696;23.218;2023-07-08T06:06:03;9.58;;;5.78;;
43552;SDS011;29153;42.696;23.218;2023-07-08T06:08:32;10.78;;;5.75;;
43552;SDS011;29153;42.696;23.218;2023-07-08T06:10:59;9.13;;;6.30;;
43552;SDS011;29153;42.696;23.218;2023-07-08T06:13:27;9.25;;;6.25;;
43552;SDS011;29153;42.696;23.218;2023-07-08T06:15:54;8.58;;;5.67;;
43552;SDS011;29153;42.696;23.218;2023-07-08T06:18:22;8.03;;;5.83;;
43552;SDS011;29153;42.696;23.218;2023-07-08T06:20:56;7.75;;;5.30;;
43552;SDS011;29153;42.696;23.218;2023-07-08T06:23:25;8.40;;;5.20;;
43552;SDS011;29153;42.696;23.218;2023-07-08T06:28:20;9.33;;;5.17;;
43552;SDS011;29153;42.696;23.218;2023-07-08T06:30:48;8.95;;;5.20;;
43552;SDS011;29153;42.696;23.218;2023-07-08T06:33:16;8.40;;;4.78;;
43552;SDS011;29153;42.696;23.218;2023-07-08T06:35:44;7.87;;;5.12;;
43552;SDS011;29153;42.696;23.218;2023-07-08T06:38:12;10.10;;;4.67;;
43552;SDS011;29153;42.696;23.218;2023-07-08T06:40:40;7.78;;;4.65;;
43552;SDS011;29153;42.696;23.218;2023-07-08T06:43:07;10.88;;;4.83;;
43552;SDS011;29153;42.696;23.218;2023-07-08T06:45:35;7.67;;;4.50;;
43552;SDS011;29153;42.696;23.218;2023-07-08T06:48:02;8.63;;;4.75;;
43552;SDS011;29153;42.696;23.218;2023-07-08T06:50:31;7.22;;;4.80;;
43552;SDS011;29153;42.696;23.218;2023-07-08T06:52:58;7.47;;;4.80;;
43552;SDS011;29153;42.696;23.218;2023-07-08T06:55:26;8.08;;;4.58;;
43552;SDS011;29153;42.696;23.218;2023-07-08T06:57:55;7.70;;;4.70;;
43552;SDS011;29153;42.696;23.218;2023-07-08T07:00:23;7.15;;;4.87;;
43552;SDS011;29153;42.696;23.218;2023-07-08T07:02:50;8.43;;;4.80;;
43552;SDS011;29153;42.696;23.218;2023-07-08T07:05:18;8.15;;;5.47;;
43552;SDS011;29153;42.696;23.218;2023-07-08T07:07:46;8.15;;;5.28;;
43552;SDS011;29153;42.696;23.218;2023-07-08T07:10:13;7.62;;;5.72;;
43552;SDS011;29153;42.696;23.218;2023-07-08T07:12:41;8.28;;;5.50;;
43552;SDS011;29153;42.696;23.218;2023-07-08T07:15:09;7.60;;;4.92;;
43552;SDS011;29153;42.696;23.218;2023-07-08T07:17:36;10.40;;;5.35;;
43552;SDS011;29153;42.696;23.218;2023-07-08T07:20:04;7.67;;;4.97;;
43552;SDS011;29153;42.696;23.218;2023-07-08T07:22:35;8.38;;;5.67;;
43552;SDS011;29153;42.696;23.218;2023-07-08T07:25:03;7.72;;;5.03;;
43552;SDS011;29153;42.696;23.218;2023-07-08T07:27:31;8.25;;;4.95;;
43552;SDS011;29153;42.696;23.218;2023-07-08T07:29:59;7.33;;;5.12;;
43552;SDS011;29153;42.696;23.218;2023-07-08T07:32:27;7.62;;;4.78;;
43552;SDS011;29153;42.696;23.218;2023-07-08T07:34:55;6.67;;;4.65;;
43552;SDS011;29153;42.696;23.218;2023-07-08T07:37:24;7.97;;;5.12;;
43552;SDS011;29153;42.696;23.218;2023-07-08T07:39:51;7.05;;;5.10;;
43552;SDS011;29153;42.696;23.218;2023-07-08T07:42:19;6.50;;;4.80;;
43552;SDS011;29153;42.696;23.218;2023-07-08T07:44:47;11.70;;;5.58;;
43552;SDS011;29153;42.696;23.218;2023-07-08T07:47:14;7.40;;;5.30;;
43552;SDS011;29153;42.696;23.218;2023-07-08T07:49:42;7.42;;;4.75;;
43552;SDS011;29153;42.696;23.218;2023-07-08T07:52:10;6.37;;;4.62;;
43552;SDS011;29153;42.696;23.218;2023-07-08T07:54:38;7.60;;;4.72;;
43552;SDS011;29153;42.696;23.218;2023-07-08T07:57:05;7.78;;;5.30;;
43552;SDS011;29153;42.696;23.218;2023-07-08T07:59:33;8.93;;;5.08;;
43552;SDS011;29153;42.696;23.218;2023-07-08T08:02:01;9.25;;;4.87;;
43552;SDS011;29153;42.696;23.218;2023-07-08T08:04:29;7.67;;;5.42;;
43552;SDS011;29153;42.696;23.218;2023-07-08T08:06:56;8.63;;;4.83;;
43552;SDS011;29153;42.696;23.218;2023-07-08T08:09:24;9.05;;;5.00;;
43552;SDS011;29153;42.696;23.218;2023-07-08T08:11:52;9.13;;;5.28;;
43552;SDS011;29153;42.696;23.218;2023-07-08T08:14:20;6.78;;;5.10;;
43552;SDS011;29153;42.696;23.218;2023-07-08T08:16:48;7.87;;;5.03;;
43552;SDS011;29153;42.696;23.218;2023-07-08T08:19:18;6.05;;;4.40;;
43552;SDS011;29153;42.696;23.218;2023-07-08T08:21:45;8.40;;;4.83;;
43552;SDS011;29153;42.696;23.218;2023-07-08T08:24:12;7.55;;;5.65;;
43552;SDS011;29153;42.696;23.218;2023-07-08T08:26:44;7.37;;;5.15;;
43552;SDS011;29153;42.696;23.218;2023-07-08T08:29:15;8.90;;;4.95;;
43552;SDS011;29153;42.696;23.218;2023-07-08T08:31:44;10.72;;;5.08;;
43552;SDS011;29153;42.696;23.218;2023-07-08T08:34:11;7.42;;;4.97;;
43552;SDS011;29153;42.696;23.218;2023-07-08T08:36:39;8.55;;;5.30;;
43552;SDS011;29153;42.696;23.218;2023-07-08T08:39:08;7.37;;;5.33;;
43552;SDS011;29153;42.696;23.218;2023-07-08T08:41:37;8.23;;;5.15;;
43552;SDS011;29153;42.696;23.218;2023-07-08T08:44:09;7.78;;;5.58;;
43552;SDS011;29153;42.696;23.218;2023-07-08T08:46:48;6.67;;;5.10;;
43552;SDS011;29153;42.696;23.218;2023-07-08T08:49:32;7.15;;;4.97;;
43552;SDS011;29153;42.696;23.218;2023-07-08T08:52:01;7.10;;;4.67;;
43552;SDS011;29153;42.696;23.218;2023-07-08T08:54:29;7.50;;;4.92;;
43552;SDS011;29153;42.696;23.218;2023-07-08T08:57:03;8.70;;;4.30;;
43552;SDS011;29153;42.696;23.218;2023-07-08T08:59:44;8.28;;;4.58;;
43552;SDS011;29153;42.696;23.218;2023-07-08T09:04:57;7.70;;;4.80;;
43552;SDS011;29153;42.696;23.218;2023-07-08T09:07:26;9.15;;;4.97;;
43552;SDS011;29153;42.696;23.218;2023-07-08T09:10:10;7.50;;;4.67;;
43552;SDS011;29153;42.696;23.218;2023-07-08T09:12:39;5.80;;;4.65;;
43552;SDS011;29153;42.696;23.218;2023-07-08T09:15:11;6.87;;;4.75;;
43552;SDS011;29153;42.696;23.218;2023-07-08T09:17:40;7.20;;;4.67;;
43552;SDS011;29153;42.696;23.218;2023-07-08T09:20:20;6.83;;;4.60;;
43552;SDS011;29153;42.696;23.218;2023-07-08T09:23:01;6.97;;;4.62;;
43552;SDS011;29153;42.696;23.218;2023-07-08T09:25:33;7.78;;;4.45;;
43552;SDS011;29153;42.696;23.218;2023-07-08T09:28:05;8.20;;;4.53;;
43552;SDS011;29153;42.696;23.218;2023-07-08T09:30:34;7.87;;;4.50;;
43552;SDS011;29153;42.696;23.218;2023-07-08T09:33:03;8.00;;;4.75;;
43552;SDS011;29153;42.696;23.218;2023-07-08T09:35:38;7.05;;;4.17;;
43552;SDS011;29153;42.696;23.218;2023-07-08T09:38:13;5.47;;;3.80;;
43552;SDS011;29153;42.696;23.218;2023-07-08T09:40:45;7.78;;;4.10;;
43552;SDS011;29153;42.696;23.218;2023-07-08T09:45:52;6.70;;;4.33;;
43552;SDS011;29153;42.696;23.218;2023-07-08T09:48:26;5.95;;;3.85;;
43552;SDS011;29153;42.696;23.218;2023-07-08T09:50:56;6.70;;;4.42;;
43552;SDS011;29153;42.696;23.218;2023-07-08T09:53:25;9.13;;;4.10;;
43552;SDS011;29153;42.696;23.218;2023-07-08T09:55:58;7.62;;;4.28;;
43552;SDS011;29153;42.696;23.218;2023-07-08T09:58:39;8.25;;;4.28;;
43552;SDS011;29153;42.696;23.218;2023-07-08T10:01:12;6.10;;;3.72;;
43552;SDS011;29153;42.696;23.218;2023-07-08T10:03:42;6.65;;;3.95;;
43552;SDS011;29153;42.696;23.218;2023-07-08T10:06:31;6.50;;;3.70;;
43552;SDS011;29153;42.696;23.218;2023-07-08T10:08:55;8.95;;;3.90;;
43552;SDS011;29153;42.696;23.218;2023-07-08T10:11:32;7.75;;;4.25;;
43552;SDS011;29153;42.696;23.218;2023-07-08T10:13:59;6.80;;;4.10;;
43552;SDS011;29153;42.696;23.218;2023-07-08T10:16:31;5.28;;;3.42;;
43552;SDS011;29153;42.696;23.218;2023-07-08T10:19:00;6.70;;;3.77;;
43552;SDS011;29153;42.696;23.218;2023-07-08T10:24:20;4.55;;;3.20;;
43552;SDS011;29153;42.696;23.218;2023-07-08T10:26:48;6.25;;;3.62;;
43552;SDS011;29153;42.696;23.218;2023-07-08T10:29:30;6.78;;;3.58;;
43552;SDS011;29153;42.696;23.218;2023-07-08T10:37:39;6.08;;;3.60;;
43552;SDS011;29153;42.696;23.218;2023-07-08T10:40:13;4.62;;;3.25;;
43552;SDS011;29153;42.696;23.218;2023-07-08T10:45:28;4.60;;;3.12;;
43552;SDS011;29153;42.696;23.218;2023-07-08T10:48:02;6.12;;;3.27;;
43552;SDS011;29153;42.696;23.218;2023-07-08T10:53:42;4.95;;;3.45;;
43552;SDS011;29153;42.696;23.218;2023-07-08T10:56:44;5.00;;;3.40;;
43552;SDS011;29153;42.696;23.218;2023-07-08T11:04:48;6.12;;;3.33;;
43552;SDS011;29153;42.696;23.218;2023-07-08T11:07:30;5.75;;;3.50;;
43552;SDS011;29153;42.696;23.218;2023-07-08T11:12:35;4.65;;;3.02;;
43552;SDS011;29153;42.696;23.218;2023-07-08T11:15:18;5.25;;;3.40;;
43552;SDS011;29153;42.696;23.218;2023-07-08T11:18:02;5.30;;;3.72;;
43552;SDS011;29153;42.696;23.218;2023-07-08T11:26:05;6.03;;;3.75;;
43552;SDS011;29153;42.696;23.218;2023-07-08T11:28:33;5.08;;;3.60;;
43552;SDS011;29153;42.696;23.218;2023-07-08T11:31:00;5.62;;;3.37;;
43552;SDS011;29153;42.696;23.218;2023-07-08T11:33:28;4.83;;;3.00;;
43552;SDS011;29153;42.696;23.218;2023-07-08T11:35:58;5.17;;;3.47;;
43552;SDS011;29153;42.696;23.218;2023-07-08T11:38:27;6.85;;;3.70;;
43552;SDS011;29153;42.696;23.218;2023-07-08T11:43:27;4.85;;;3.15;;
43552;SDS011;29153;42.696;23.218;2023-07-08T11:45:57;6.60;;;3.27;;
43552;SDS011;29153;42.696;23.218;2023-07-08T11:48:34;6.05;;;3.10;;
43552;SDS011;29153;42.696;23.218;2023-07-08T11:51:07;5.12;;;3.33;;
43552;SDS011;29153;42.696;23.218;2023-07-08T11:53:36;5.70;;;3.22;;
43552;SDS011;29153;42.696;23.218;2023-07-08T12:01:28;6.05;;;2.75;;
43552;SDS011;29153;42.696;23.218;2023-07-08T12:09:14;5.08;;;2.90;;
43552;SDS011;29153;42.696;23.218;2023-07-08T12:11:52;4.65;;;2.75;;
43552;SDS011;29153;42.696;23.218;2023-07-08T15:38:31;4.10;;;2.08;;
43552;SDS011;29153;42.696;23.218;2023-07-08T17:10:46;5.58;;;2.50;;
43552;SDS011;29153;42.696;23.218;2023-07-08T17:13:15;6.78;;;2.83;;
43552;SDS011;29153;42.696;23.218;2023-07-08T17:15:43;4.75;;;2.50;;
43552;SDS011;29153;42.696;23.218;2023-07-08T17:18:18;6.67;;;2.62;;
43552;SDS011;29153;42.696;23.218;2023-07-08T17:20:42;5.92;;;2.47;;
43552;SDS011;29153;42.696;23.218;2023-07-08T17:25:38;5.72;;;2.60;;
43552;SDS011;29153;42.696;23.218;2023-07-08T17:28:06;6.22;;;2.42;;
43552;SDS011;29153;42.696;23.218;2023-07-08T17:30:34;6.37;;;2.65;;
43552;SDS011;29153;42.696;23.218;2023-07-08T17:33:02;5.40;;;2.50;;
43552;SDS011;29153;42.696;23.218;2023-07-08T17:38:09;7.70;;;2.83;;
43552;SDS011;29153;42.696;23.218;2023-07-08T17:40:37;8.03;;;3.10;;
43552;SDS011;29153;42.696;23.218;2023-07-08T17:43:08;5.55;;;2.87;;
43552;SDS011;29153;42.696;23.218;2023-07-08T17:45:35;4.87;;;2.75;;
43552;SDS011;29153;42.696;23.218;2023-07-08T17:48:04;4.62;;;2.77;;
43552;SDS011;29153;42.696;23.218;2023-07-08T17:50:35;4.85;;;2.72;;
43552;SDS011;29153;42.696;23.218;2023-07-08T17:53:08;8.75;;;3.00;;
43552;SDS011;29153;42.696;23.218;2023-07-08T17:55:37;5.67;;;2.95;;
43552;SDS011;29153;42.696;23.218;2023-07-08T17:58:04;5.62;;;3.20;;
43552;SDS011;29153;42.696;23.218;2023-07-08T18:00:33;6.30;;;3.15;;
43552;SDS011;29153;42.696;23.218;2023-07-08T18:03:01;6.97;;;3.17;;
43552;SDS011;29153;42.696;23.218;2023-07-08T18:05:31;8.23;;;2.90;;
43552;SDS011;29153;42.696;23.218;2023-07-08T18:07:59;6.05;;;2.67;;
43552;SDS011;29153;42.696;23.218;2023-07-08T18:10:27;6.45;;;3.05;;
43552;SDS011;29153;42.696;23.218;2023-07-08T18:12:56;5.08;;;2.87;;
43552;SDS011;29153;42.696;23.218;2023-07-08T18:15:28;6.47;;;3.05;;
43552;SDS011;29153;42.696;23.218;2023-07-08T18:17:59;5.60;;;3.12;;
43552;SDS011;29153;42.696;23.218;2023-07-08T18:22:58;6.40;;;3.72;;
43552;SDS011;29153;42.696;23.218;2023-07-08T18:25:29;7.45;;;3.35;;
43552;SDS011;29153;42.696;23.218;2023-07-08T18:27:58;5.95;;;2.62;;
43552;SDS011;29153;42.696;23.218;2023-07-08T18:30:27;6.37;;;2.75;;
43552;SDS011;29153;42.696;23.218;2023-07-08T18:32:57;5.62;;;2.70;;
43552;SDS011;29153;42.696;23.218;2023-07-08T18:35:26;6.30;;;3.20;;
43552;SDS011;29153;42.696;23.218;2023-07-08T18:37:55;4.62;;;2.70;;
43552;SDS011;29153;42.696;23.218;2023-07-08T18:40:35;5.45;;;2.77;;
43552;SDS011;29153;42.696;23.218;2023-07-08T18:43:06;5.47;;;2.40;;
43552;SDS011;29153;42.696;23.218;2023-07-08T18:45:34;5.12;;;2.40;;
43552;SDS011;29153;42.696;23.218;2023-07-08T18:48:02;4.55;;;2.33;;
43552;SDS011;29153;42.696;23.218;2023-07-08T18:50:30;6.22;;;2.83;;
43552;SDS011;29153;42.696;23.218;2023-07-08T18:52:59;5.28;;;2.50;;
43552;SDS011;29153;42.696;23.218;2023-07-08T18:55:31;6.33;;;2.52;;
43552;SDS011;29153;42.696;23.218;2023-07-08T18:57:59;8.70;;;2.30;;
43552;SDS011;29153;42.696;23.218;2023-07-08T19:03:25;6.65;;;2.40;;
43552;SDS011;29153;42.696;23.218;2023-07-08T19:05:55;4.40;;;2.50;;
43552;SDS011;29153;42.696;23.218;2023-07-08T19:08:24;4.90;;;2.47;;
43552;SDS011;29153;42.696;23.218;2023-07-08T19:10:52;5.58;;;3.00;;
43552;SDS011;29153;42.696;23.218;2023-07-08T19:13:22;6.42;;;2.55;;
43552;SDS011;29153;42.696;23.218;2023-07-08T19:15:53;5.75;;;2.65;;
43552;SDS011;29153;42.696;23.218;2023-07-08T19:18:22;5.75;;;2.45;;
43552;SDS011;29153;42.696;23.218;2023-07-08T19:20:52;6.45;;;2.50;;
43552;SDS011;29153;42.696;23.218;2023-07-08T19:23:24;4.67;;;2.67;;
43552;SDS011;29153;42.696;23.218;2023-07-08T19:25:50;5.65;;;2.60;;
43552;SDS011;29153;42.696;23.218;2023-07-08T19:28:17;5.85;;;2.60;;
43552;SDS011;29153;42.696;23.218;2023-07-08T19:30:50;6.47;;;3.12;;
43552;SDS011;29153;42.696;23.218;2023-07-08T19:33:17;5.53;;;2.70;;
43552;SDS011;29153;42.696;23.218;2023-07-08T19:35:45;4.90;;;2.37;;
43552;SDS011;29153;42.696;23.218;2023-07-08T19:38:14;4.78;;;2.27;;
43552;SDS011;29153;42.696;23.218;2023-07-08T19:40:47;3.80;;;2.15;;
43552;SDS011;29153;42.696;23.218;2023-07-08T19:43:17;4.65;;;2.20;;
43552;SDS011;29153;42.696;23.218;2023-07-08T19:45:46;5.15;;;2.67;;
43552;SDS011;29153;42.696;23.218;2023-07-08T19:48:15;7.65;;;2.58;;
43552;SDS011;29153;42.696;23.218;2023-07-08T19:50:43;6.05;;;2.60;;
43552;SDS011;29153;42.696;23.218;2023-07-08T19:53:12;4.40;;;2.45;;
43552;SDS011;29153;42.696;23.218;2023-07-08T19:55:39;4.60;;;2.10;;
43552;SDS011;29153;42.696;23.218;2023-07-08T19:58:10;5.87;;;2.30;;
43552;SDS011;29153;42.696;23.218;2023-07-08T20:00:39;4.85;;;2.47;;
43552;SDS011;29153;42.696;23.218;2023-07-08T20:03:11;4.10;;;2.30;;
43552;SDS011;29153;42.696;23.218;2023-07-08T20:05:41;5.72;;;2.58;;
43552;SDS011;29153;42.696;23.218;2023-07-08T20:08:20;5.22;;;2.75;;
43552;SDS011;29153;42.696;23.218;2023-07-08T20:10:49;4.70;;;2.60;;
43552;SDS011;29153;42.696;23.218;2023-07-08T20:13:20;6.17;;;2.67;;
43552;SDS011;29153;42.696;23.218;2023-07-08T20:15:48;5.42;;;2.72;;
43552;SDS011;29153;42.696;23.218;2023-07-08T20:18:17;5.67;;;2.60;;
43552;SDS011;29153;42.696;23.218;2023-07-08T20:20:49;5.62;;;3.00;;
43552;SDS011;29153;42.696;23.218;2023-07-08T20:23:18;5.42;;;2.40;;
43552;SDS011;29153;42.696;23.218;2023-07-08T20:25:45;5.65;;;2.90;;
43552;SDS011;29153;42.696;23.218;2023-07-08T20:28:13;5.10;;;3.00;;
43552;SDS011;29153;42.696;23.218;2023-07-08T20:30:42;5.30;;;2.70;;
43552;SDS011;29153;42.696;23.218;2023-07-08T20:33:13;5.22;;;2.92;;
43552;SDS011;29153;42.696;23.218;2023-07-08T20:35:40;6.45;;;2.83;;
43552;SDS011;29153;42.696;23.218;2023-07-08T20:38:10;5.15;;;2.80;;
43552;SDS011;29153;42.696;23.218;2023-07-08T20:40:38;5.65;;;2.62;;
43552;SDS011;29153;42.696;23.218;2023-07-08T20:45:42;5.97;;;2.90;;
43552;SDS011;29153;42.696;23.218;2023-07-08T20:48:18;7.45;;;2.85;;
43552;SDS011;29153;42.696;23.218;2023-07-08T20:50:50;6.87;;;3.05;;
43552;SDS011;29153;42.696;23.218;2023-07-08T20:53:19;7.37;;;2.77;;